Delta Lindsey — WDF5519 — position and weather

sailwx.info

Track history (hours):
 
Tides and Currents Weather Stations Pressure Air Temp Water Temp Dewpoint Dewpoint Depression Visibility Wind Speed Wind Dir Waves Ship Positions

Delta Lindsey

Owner: Baydelta Navigation, Inc., San Francisco, CA. More information available from US FCC via Universal Licensing System and Coast Guard Vessel Documentation Center.

Last reported at 2017-Sep-24 23:00 UTC. Time now 2017-Sep-24 23:13 UTC.
Position N 47°28' W 122°24'.

MMSI: 233246442.

Date/timePositionNaut miles runAvg speedWind from/ knotsBaromVisibWave heightAir tempDewpointWater temp
2017-Sep-24 23:00N 47°28' W 122°24'5 9.9
2017-Sep-24 22:30N 47°33' W 122°25'5 9.1
2017-Sep-24 22:00N 47°37' W 122°23'1 2.2
2017-Sep-24 21:30N 47°38' W 122°23'0 0.0
2017-Sep-24 21:00N 47°38' W 122°23'0 0.0
2017-Sep-24 20:30N 47°38' W 122°23'0 0.0
2017-Sep-24 20:00N 47°38' W 122°23'0 0.0
2017-Sep-24 19:30N 47°38' W 122°23'0 0.0
2017-Sep-24 19:00N 47°38' W 122°23'0 0.0
2017-Sep-24 18:30N 47°38' W 122°23'0 0.0
2017-Sep-24 18:00N 47°38' W 122°23'0 0.0
2017-Sep-24 17:30N 47°38' W 122°23'0 0.0
2017-Sep-24 17:00N 47°38' W 122°23'0 0.0
2017-Sep-24 16:30N 47°38' W 122°23'0 0.0
2017-Sep-24 16:00N 47°38' W 122°23'0 0.0
2017-Sep-24 15:30N 47°38' W 122°23'0 0.0
2017-Sep-24 15:00N 47°38' W 122°23'0 0.0
2017-Sep-24 14:30N 47°38' W 122°23'0 0.0
2017-Sep-24 14:00N 47°38' W 122°23'0 1.0
2017-Sep-24 13:30N 47°37' W 122°23'3 5.5
2017-Sep-24 13:00N 47°35' W 122°21'0 0.6
2017-Sep-24 12:30N 47°35' W 122°21'1 2.1
2017-Sep-24 12:00N 47°36' W 122°21'1 1.6
2017-Sep-24 11:30N 47°37' W 122°22'1 2.4
2017-Sep-24 11:00N 47°38' W 122°23'0 0.0
2017-Sep-24 10:30N 47°38' W 122°23'0 0.0
2017-Sep-24 09:59N 47°38' W 122°23'0 0.0
2017-Sep-24 09:29N 47°38' W 122°23'0 0.0
2017-Sep-24 08:59N 47°38' W 122°23'0 0.0
2017-Sep-24 08:29N 47°38' W 122°23'0 0.0
2017-Sep-24 07:59N 47°38' W 122°23'0 0.0
2017-Sep-24 07:29N 47°38' W 122°23'0 0.0
2017-Sep-24 06:59N 47°38' W 122°23'0 0.0
2017-Sep-24 06:29N 47°38' W 122°23'0 0.0
2017-Sep-24 05:59N 47°38' W 122°23'0 0.0
2017-Sep-24 05:29N 47°38' W 122°23'0 0.0
2017-Sep-24 04:59N 47°38' W 122°23'0 0.0
2017-Sep-24 04:29N 47°38' W 122°23'4 9.0
2017-Sep-24 04:00N 47°34' W 122°26'511.0
2017-Sep-24 03:31N 47°29' W 122°24'510.5
2017-Sep-24 03:00N 47°24' W 122°21'510.1
2017-Sep-24 02:30N 47°20' W 122°26'4 8.0
2017-Sep-24 02:00N 47°16' W 122°26'2 2.9
2017-Sep-24 01:29N 47°16' W 122°24'1 1.8
2017-Sep-24 01:00N 47°15' W 122°23'0 0.1
2017-Sep-24 00:30N 47°15' W 122°23'3 5.2
2017-Sep-24 00:01N 47°16' W 122°26'1 1.2
2017-Sep-23 23:28N 47°16' W 122°26'0 0.0
2017-Sep-23 22:58N 47°16' W 122°26'0 0.0
2017-Sep-23 22:28N 47°16' W 122°26'0 0.0
2017-Sep-23 21:58N 47°16' W 122°26'3 5.6
2017-Sep-23 21:30N 47°18' W 122°27'5 9.4
2017-Sep-23 21:00N 47°22' W 122°24'5 9.4
2017-Sep-23 20:30N 47°27' W 122°23'510.0
2017-Sep-23 20:00N 47°32' W 122°25'60 1.4
2017-Sep-22 01:00N 48°31' W 122°37'0 0.0
2017-Sep-22 00:27N 48°31' W 122°37'0 0.0
2017-Sep-21 23:51N 48°31' W 122°37'0 0.0
2017-Sep-21 23:27N 48°31' W 122°37'0 0.0
2017-Sep-21 22:05N 48°31' W 122°37'0 3.5
2017-Sep-21 21:59N 48°31' W 122°36'1 1.2
2017-Sep-21 21:08N 48°31' W 122°35'0 2.0
2017-Sep-21 20:55N 48°31' W 122°35'2 3.8
2017-Sep-21 20:29N 48°31' W 122°38'4 7.9
2017-Sep-21 19:59N 48°30' W 122°43'4 8.6
2017-Sep-21 19:30N 48°26' W 122°46'1211.5
2017-Sep-21 18:27N 48°19' W 122°60'511.0
2017-Sep-21 17:59N 48°16' W 123°07'0 1.0
2017-Sep-21 17:30N 48°16' W 123°06'3 5.3
2017-Sep-21 16:59N 48°15' W 123°03'23 8.9
2017-Sep-21 14:23N 48°00' W 122°36'410.6
2017-Sep-21 14:00N 47°57' W 122°32'510.0
2017-Sep-21 13:30N 47°53' W 122°28'510.5
2017-Sep-21 13:00N 47°48' W 122°26'510.1
2017-Sep-21 12:30N 47°42' W 122°26'5 9.4
2017-Sep-21 12:00N 47°38' W 122°25'2 2.9
2017-Sep-21 11:28N 47°38' W 122°23'0 0.0
2017-Sep-21 10:58N 47°38' W 122°23'0 0.0
2017-Sep-21 10:28N 47°38' W 122°23'0 0.0
2017-Sep-21 10:00N 47°38' W 122°23'0 0.0
2017-Sep-21 09:30N 47°38' W 122°23'0 0.0
2017-Sep-21 09:00N 47°38' W 122°23'0 0.0
2017-Sep-21 08:30N 47°38' W 122°23'0 0.0
2017-Sep-21 08:00N 47°38' W 122°23'0 0.0
2017-Sep-21 07:30N 47°38' W 122°23'0 0.0
2017-Sep-21 07:00N 47°38' W 122°23'0 0.0
2017-Sep-21 06:30N 47°38' W 122°23'0 0.0
2017-Sep-21 06:00N 47°38' W 122°23'0 0.0
2017-Sep-21 05:30N 47°38' W 122°23'0 0.0
2017-Sep-21 05:00N 47°38' W 122°23'0 0.0
2017-Sep-21 04:30N 47°38' W 122°23'0 0.0
2017-Sep-21 04:00N 47°38' W 122°23'0 0.0
2017-Sep-21 03:30N 47°38' W 122°23'0 0.0
2017-Sep-21 03:00N 47°38' W 122°23'0 0.0
2017-Sep-21 02:30N 47°38' W 122°23'0 0.0
2017-Sep-21 02:00N 47°38' W 122°23'0 0.0
2017-Sep-21 01:30N 47°38' W 122°23'2 4.5
2017-Sep-21 01:00N 47°36' W 122°24'611.4
2017-Sep-21 00:30N 47°31' W 122°29'611.3
2017-Sep-21 00:00N 47°26' W 122°31'611.3
2017-Sep-20 23:30N 47°20' W 122°32'611.7
2017-Sep-20 23:00N 47°17' W 122°25'2 3.8
2017-Sep-20 22:30N 47°15' W 122°23'1 1.5
2017-Sep-20 22:00N 47°16' W 122°23'2 3.5
2017-Sep-20 21:30N 47°17' W 122°25'1 2.6
2017-Sep-20 21:00N 47°16' W 122°26'1 2.5
2017-Sep-20 20:29N 47°16' W 122°24'1 1.5
2017-Sep-20 20:01N 47°17' W 122°25'1 1.7
2017-Sep-20 19:30N 47°18' W 122°26'2 3.3
2017-Sep-20 19:00N 47°16' W 122°26'0 0.3
2017-Sep-20 18:24N 47°16' W 122°26'0 0.0
2017-Sep-20 18:00N 47°16' W 122°26'0 0.0
2017-Sep-20 17:27N 47°16' W 122°26'0 0.0
2017-Sep-20 16:54N 47°16' W 122°26'0 0.0
2017-Sep-20 16:09N 47°16' W 122°26'0 0.0
2017-Sep-20 15:57N 47°16' W 122°26'0 0.0
2017-Sep-20 15:30N 47°16' W 122°26'0 0.0
2017-Sep-20 14:51N 47°16' W 122°26'0 0.0
2017-Sep-20 14:00N 47°16' W 122°26'0 0.0
2017-Sep-20 13:30N 47°16' W 122°26'2 3.1
2017-Sep-20 13:00N 47°17' W 122°27'4 9.0
2017-Sep-20 12:30N 47°21' W 122°25'4 8.5
2017-Sep-20 12:01N 47°26' W 122°24'510.4
2017-Sep-20 11:30N 47°31' W 122°24'5 9.8
2017-Sep-20 11:00N 47°36' W 122°24'2 4.9
2017-Sep-20 10:30N 47°36' W 122°21'0 0.1
2017-Sep-20 10:01N 47°36' W 122°21'1 1.7
2017-Sep-20 09:31N 47°35' W 122°21'0 0.0
2017-Sep-20 08:58N 47°35' W 122°21'0 0.0
2017-Sep-20 08:28N 47°35' W 122°21'0 0.0
2017-Sep-20 07:58N 47°35' W 122°21'0 0.0
2017-Sep-20 07:28N 47°35' W 122°21'0 0.0
2017-Sep-20 06:55N 47°35' W 122°21'0 0.0
2017-Sep-20 06:28N 47°35' W 122°21'0 0.0
2017-Sep-20 05:58N 47°35' W 122°21'0 0.0
2017-Sep-20 05:28N 47°35' W 122°21'0 0.0
2017-Sep-20 04:59N 47°35' W 122°21'0 0.0
2017-Sep-20 04:28N 47°35' W 122°21'0 0.0
2017-Sep-20 03:52N 47°35' W 122°21'0 0.0
2017-Sep-20 03:28N 47°35' W 122°21'0 0.0
2017-Sep-20 02:58N 47°35' W 122°21'0 0.0
2017-Sep-20 02:28N 47°35' W 122°21'0 0.1
2017-Sep-20 02:00N 47°35' W 122°21'1 1.7
2017-Sep-20 01:30N 47°36' W 122°21'1 2.5
2017-Sep-20 01:00N 47°36' W 122°22'1 1.8
2017-Sep-20 00:30N 47°37' W 122°23'1 2.1
2017-Sep-19 23:58N 47°38' W 122°23'0 0.0
2017-Sep-19 23:28N 47°38' W 122°23'0 0.0
2017-Sep-19 22:58N 47°38' W 122°23'0 0.0
2017-Sep-19 22:28N 47°38' W 122°23'0 0.0
2017-Sep-19 21:58N 47°38' W 122°23'0 0.0
2017-Sep-19 21:28N 47°38' W 122°23'0 0.0
2017-Sep-19 20:58N 47°38' W 122°23'0 0.0
2017-Sep-19 20:28N 47°38' W 122°23'0 0.0
2017-Sep-19 19:59N 47°38' W 122°23'0 0.0
2017-Sep-19 19:29N 47°38' W 122°23'0 0.1
2017-Sep-19 19:00N 47°38' W 122°23'3 5.6
2017-Sep-19 18:30N 47°36' W 122°21'0 0.4
2017-Sep-19 18:00N 47°36' W 122°21'1 2.0
2017-Sep-19 17:30N 47°36' W 122°22'2 3.1
2017-Sep-19 16:59N 47°35' W 122°21'0 0.0
2017-Sep-19 16:28N 47°35' W 122°21'0 0.0
2017-Sep-19 15:58N 47°35' W 122°21'0 0.0
2017-Sep-19 15:29N 47°35' W 122°21'0 0.0
2017-Sep-19 14:58N 47°35' W 122°21'0 0.0
2017-Sep-19 14:31N 47°35' W 122°21'0 0.5
2017-Sep-19 14:01N 47°35' W 122°21'1 1.6
2017-Sep-19 13:31N 47°36' W 122°21'1 2.5
2017-Sep-19 13:01N 47°36' W 122°22'0 0.5
2017-Sep-19 12:31N 47°36' W 122°22'1 2.8
2017-Sep-19 12:01N 47°35' W 122°21'0 0.7
2017-Sep-19 11:31N 47°35' W 122°21'0 0.4
2017-Sep-19 11:00N 47°35' W 122°21'0 0.0
2017-Sep-19 10:30N 47°35' W 122°21'0 0.1
2017-Sep-19 10:01N 47°35' W 122°21'3 5.3
2017-Sep-19 09:28N 47°38' W 122°23'0 0.0
2017-Sep-19 09:01N 47°38' W 122°23'0 0.0
2017-Sep-19 08:28N 47°38' W 122°23'0 0.0
2017-Sep-19 08:01N 47°38' W 122°23'0 0.0
2017-Sep-19 07:31N 47°38' W 122°23'0 0.0
2017-Sep-19 06:58N 47°38' W 122°23'0 0.0
2017-Sep-19 06:31N 47°38' W 122°23'0 0.0
2017-Sep-19 06:00N 47°38' W 122°23'3 7.0
2017-Sep-19 05:30N 47°39' W 122°28'510.1
2017-Sep-19 05:00N 47°44' W 122°27'510.5
2017-Sep-19 04:30N 47°50' W 122°28'510.5
2017-Sep-19 04:00N 47°55' W 122°30'5 9.1
2017-Sep-19 03:30N 47°58' W 122°35'10 8.8
2017-Sep-19 02:23N 48°07' W 122°41'19 9.5
2017-Sep-19 00:20N 48°26' W 122°45'7 2.1
2017-Sep-18 21:07N 48°33' W 122°45'1 8.1
2017-Sep-18 21:00N 48°34' W 122°45'6 8.4
2017-Sep-18 20:16N 48°40' W 122°44'2 9.4
2017-Sep-18 20:00N 48°42' W 122°45'610.6
2017-Sep-18 19:26N 48°48' W 122°44'0 0.2
2017-Sep-18 18:02N 48°49' W 122°44'0 5.0
2017-Sep-18 18:00N 48°48' W 122°44'1 1.4
2017-Sep-18 17:07N 48°47' W 122°45'2 4.4
2017-Sep-18 16:41N 48°45' W 122°45'2 6.6
2017-Sep-18 16:22N 48°43' W 122°44'3 6.9
2017-Sep-18 15:59N 48°41' W 122°42'5 8.0
2017-Sep-18 15:18N 48°37' W 122°37'5 0.2
2017-Sep-17 18:09N 48°31' W 122°36'1 7.4
2017-Sep-17 17:57N 48°31' W 122°35'0 0.1
2017-Sep-17 17:06N 48°31' W 122°34'0 0.3
2017-Sep-17 16:49N 48°31' W 122°35'0 0.4
2017-Sep-17 15:52N 48°31' W 122°35'1 0.5
2017-Sep-17 13:13N 48°31' W 122°37'0 0.0
2017-Sep-17 11:52N 48°31' W 122°37'0 0.0
2017-Sep-17 11:21N 48°31' W 122°37'0 0.0
2017-Sep-17 11:00N 48°31' W 122°37'0 0.0
2017-Sep-17 10:30N 48°31' W 122°37'0 0.0
2017-Sep-17 09:48N 48°31' W 122°37'0 0.0
2017-Sep-17 09:30N 48°31' W 122°37'0 0.0
2017-Sep-17 09:01N 48°31' W 122°37'0 0.0
2017-Sep-17 08:22N 48°31' W 122°37'0 0.0
2017-Sep-17 07:58N 48°31' W 122°37'0 0.0
2017-Sep-17 07:30N 48°31' W 122°37'0 0.0
2017-Sep-17 07:00N 48°31' W 122°37'0 0.0
2017-Sep-17 06:30N 48°31' W 122°37'0 0.0
2017-Sep-17 03:24N 48°31' W 122°37'0 0.0
2017-Sep-17 02:54N 48°31' W 122°37'0 0.0
2017-Sep-17 00:57N 48°31' W 122°37'1 2.4
2017-Sep-17 00:23N 48°31' W 122°35'0 0.1
2017-Sep-16 23:52N 48°31' W 122°35'0 1.2
2017-Sep-16 23:30N 48°31' W 122°34'2 2.6
2017-Sep-16 22:55N 48°31' W 122°36'0 0.0
2017-Sep-16 14:51N 48°31' W 122°37'0 0.0
2017-Sep-16 14:27N 48°31' W 122°37'0 0.0
2017-Sep-16 13:51N 48°31' W 122°37'0 0.0
2017-Sep-16 13:24N 48°31' W 122°37'0 0.0
2017-Sep-16 13:00N 48°31' W 122°37'0 0.0
2017-Sep-16 12:27N 48°31' W 122°37'0 0.0
2017-Sep-16 12:00N 48°31' W 122°37'0 0.0
2017-Sep-16 11:30N 48°31' W 122°37'1 2.3
2017-Sep-16 11:00N 48°31' W 122°38'4 7.8
2017-Sep-16 10:30N 48°29' W 122°43'5 9.5
2017-Sep-16 10:00N 48°25' W 122°44'510.4
2017-Sep-16 09:30N 48°19' W 122°46'2010.1
2017-Sep-16 07:34N 48°01' W 122°37'110.7
2017-Sep-16 07:28N 47°60' W 122°36'510.6
2017-Sep-16 07:00N 47°57' W 122°31'510.9
2017-Sep-16 06:30N 47°51' W 122°28'611.4
2017-Sep-16 06:00N 47°46' W 122°26'611.1
2017-Sep-16 05:30N 47°40' W 122°27'510.7
2017-Sep-16 05:00N 47°36' W 122°22'0 0.8
2017-Sep-16 04:30N 47°36' W 122°21'2 3.9
2017-Sep-16 03:59N 47°38' W 122°23'0 0.0
2017-Sep-16 03:29N 47°38' W 122°23'0 0.0
2017-Sep-16 03:00N 47°38' W 122°23'0 0.0
2017-Sep-16 02:29N 47°38' W 122°23'0 0.0
2017-Sep-16 02:00N 47°38' W 122°23'0 0.0
2017-Sep-16 01:30N 47°38' W 122°23'0 0.0
2017-Sep-16 01:00N 47°38' W 122°23'3 6.4
2017-Sep-16 00:30N 47°35' W 122°21'0 0.9
2017-Sep-16 00:00N 47°35' W 122°21'1 2.4
2017-Sep-15 23:30N 47°37' W 122°22'1 2.2
2017-Sep-15 23:00N 47°35' W 122°22'3 5.1
2017-Sep-15 22:30N 47°33' W 122°20'0 0.0
2017-Sep-15 22:00N 47°33' W 122°20'1 1.5
2017-Sep-15 21:30N 47°34' W 122°21'1 1.8
2017-Sep-15 21:00N 47°34' W 122°21'1 2.0
2017-Sep-15 20:30N 47°35' W 122°22'1 1.4
2017-Sep-15 20:01N 47°36' W 122°21'2 4.0
2017-Sep-15 19:30N 47°38' W 122°23'0 0.0
2017-Sep-15 18:58N 47°38' W 122°23'0 0.0
2017-Sep-15 18:29N 47°38' W 122°23'0 0.0
2017-Sep-15 17:58N 47°38' W 122°23'0 0.0
2017-Sep-15 17:28N 47°38' W 122°23'0 0.0
2017-Sep-15 16:58N 47°38' W 122°23'0 0.0
2017-Sep-15 16:29N 47°38' W 122°23'0 0.0
2017-Sep-15 15:58N 47°38' W 122°23'0 0.0
2017-Sep-15 15:28N 47°38' W 122°23'0 0.0
2017-Sep-15 14:58N 47°38' W 122°23'0 0.0
2017-Sep-15 14:28N 47°38' W 122°23'0 0.0
2017-Sep-15 13:58N 47°38' W 122°23'0 0.0
2017-Sep-15 13:28N 47°38' W 122°23'0 0.0
2017-Sep-15 13:00N 47°38' W 122°23'4 8.5
2017-Sep-15 12:30N 47°34' W 122°26'611.2
2017-Sep-15 12:00N 47°29' W 122°24'611.2
2017-Sep-15 11:30N 47°24' W 122°21'510.7
2017-Sep-15 11:00N 47°19' W 122°26'4 8.9
2017-Sep-15 10:30N 47°16' W 122°23'0 0.0
2017-Sep-15 10:00N 47°16' W 122°23'2 3.3
2017-Sep-15 09:30N 47°17' W 122°25'0 0.1
2017-Sep-15 09:00N 47°17' W 122°25'1 0.2
2017-Sep-15 03:02N 47°16' W 122°26'0 0.0
2017-Sep-15 03:00N 47°16' W 122°26'0 0.0
2017-Sep-15 02:25N 47°16' W 122°26'1 3.1
2017-Sep-15 02:01N 47°16' W 122°24'2 3.0
2017-Sep-15 01:31N 47°15' W 122°23'0 0.1
2017-Sep-15 00:59N 47°15' W 122°23'2 3.3
2017-Sep-15 00:29N 47°16' W 122°24'2 2.8
2017-Sep-14 23:56N 47°16' W 122°27'0 0.3
2017-Sep-14 23:30N 47°16' W 122°26'  
Track history (hours):
 
Tides and Currents Weather Stations Pressure Air Temp Water Temp Dewpoint Dewpoint Depression Visibility Wind Speed Wind Dir Waves Ship Positions

Delta Lindsey

Owner: Baydelta Navigation, Inc., San Francisco, CA. More information available from US FCC via Universal Licensing System and Coast Guard Vessel Documentation Center.

Last reported at 2017-Sep-24 23:00 UTC. Time now 2017-Sep-24 23:13 UTC.
Position N 47°28' W 122°24'.

MMSI: 233246442.

Date/timePositionNaut miles runAvg speedWind from/ knotsBaromVisibWave heightAir tempDewpointWater temp
2017-Sep-24 23:00N 47°28' W 122°24'5 9.9
2017-Sep-24 22:30N 47°33' W 122°25'5 9.1
2017-Sep-24 22:00N 47°37' W 122°23'1 2.2
2017-Sep-24 21:30N 47°38' W 122°23'0 0.0
2017-Sep-24 21:00N 47°38' W 122°23'0 0.0
2017-Sep-24 20:30N 47°38' W 122°23'0 0.0
2017-Sep-24 20:00N 47°38' W 122°23'0 0.0
2017-Sep-24 19:30N 47°38' W 122°23'0 0.0
2017-Sep-24 19:00N 47°38' W 122°23'0 0.0
2017-Sep-24 18:30N 47°38' W 122°23'0 0.0
2017-Sep-24 18:00N 47°38' W 122°23'0 0.0
2017-Sep-24 17:30N 47°38' W 122°23'0 0.0
2017-Sep-24 17:00N 47°38' W 122°23'0 0.0
2017-Sep-24 16:30N 47°38' W 122°23'0 0.0
2017-Sep-24 16:00N 47°38' W 122°23'0 0.0
2017-Sep-24 15:30N 47°38' W 122°23'0 0.0
2017-Sep-24 15:00N 47°38' W 122°23'0 0.0
2017-Sep-24 14:30N 47°38' W 122°23'0 0.0
2017-Sep-24 14:00N 47°38' W 122°23'0 1.0
2017-Sep-24 13:30N 47°37' W 122°23'3 5.5
2017-Sep-24 13:00N 47°35' W 122°21'0 0.6
2017-Sep-24 12:30N 47°35' W 122°21'1 2.1
2017-Sep-24 12:00N 47°36' W 122°21'1 1.6
2017-Sep-24 11:30N 47°37' W 122°22'1 2.4
2017-Sep-24 11:00N 47°38' W 122°23'0 0.0
2017-Sep-24 10:30N 47°38' W 122°23'0 0.0
2017-Sep-24 09:59N 47°38' W 122°23'0 0.0
2017-Sep-24 09:29N 47°38' W 122°23'0 0.0
2017-Sep-24 08:59N 47°38' W 122°23'0 0.0
2017-Sep-24 08:29N 47°38' W 122°23'0 0.0
2017-Sep-24 07:59N 47°38' W 122°23'0 0.0
2017-Sep-24 07:29N 47°38' W 122°23'0 0.0
2017-Sep-24 06:59N 47°38' W 122°23'0 0.0
2017-Sep-24 06:29N 47°38' W 122°23'0 0.0
2017-Sep-24 05:59N 47°38' W 122°23'0 0.0
2017-Sep-24 05:29N 47°38' W 122°23'0 0.0
2017-Sep-24 04:59N 47°38' W 122°23'0 0.0
2017-Sep-24 04:29N 47°38' W 122°23'4 9.0
2017-Sep-24 04:00N 47°34' W 122°26'511.0
2017-Sep-24 03:31N 47°29' W 122°24'510.5
2017-Sep-24 03:00N 47°24' W 122°21'510.1
2017-Sep-24 02:30N 47°20' W 122°26'4 8.0
2017-Sep-24 02:00N 47°16' W 122°26'2 2.9
2017-Sep-24 01:29N 47°16' W 122°24'1 1.8
2017-Sep-24 01:00N 47°15' W 122°23'0 0.1
2017-Sep-24 00:30N 47°15' W 122°23'3 5.2
2017-Sep-24 00:01N 47°16' W 122°26'1 1.2
2017-Sep-23 23:28N 47°16' W 122°26'0 0.0
2017-Sep-23 22:58N 47°16' W 122°26'0 0.0
2017-Sep-23 22:28N 47°16' W 122°26'0 0.0
2017-Sep-23 21:58N 47°16' W 122°26'3 5.6
2017-Sep-23 21:30N 47°18' W 122°27'5 9.4
2017-Sep-23 21:00N 47°22' W 122°24'5 9.4
2017-Sep-23 20:30N 47°27' W 122°23'510.0
2017-Sep-23 20:00N 47°32' W 122°25'60 1.4
2017-Sep-22 01:00N 48°31' W 122°37'0 0.0
2017-Sep-22 00:27N 48°31' W 122°37'0 0.0
2017-Sep-21 23:51N 48°31' W 122°37'0 0.0
2017-Sep-21 23:27N 48°31' W 122°37'0 0.0
2017-Sep-21 22:05N 48°31' W 122°37'0 3.5
2017-Sep-21 21:59N 48°31' W 122°36'1 1.2
2017-Sep-21 21:08N 48°31' W 122°35'0 2.0
2017-Sep-21 20:55N 48°31' W 122°35'2 3.8
2017-Sep-21 20:29N 48°31' W 122°38'4 7.9
2017-Sep-21 19:59N 48°30' W 122°43'4 8.6
2017-Sep-21 19:30N 48°26' W 122°46'1211.5
2017-Sep-21 18:27N 48°19' W 122°60'511.0
2017-Sep-21 17:59N 48°16' W 123°07'0 1.0
2017-Sep-21 17:30N 48°16' W 123°06'3 5.3
2017-Sep-21 16:59N 48°15' W 123°03'23 8.9
2017-Sep-21 14:23N 48°00' W 122°36'410.6
2017-Sep-21 14:00N 47°57' W 122°32'510.0
2017-Sep-21 13:30N 47°53' W 122°28'510.5
2017-Sep-21 13:00N 47°48' W 122°26'510.1
2017-Sep-21 12:30N 47°42' W 122°26'5 9.4
2017-Sep-21 12:00N 47°38' W 122°25'2 2.9
2017-Sep-21 11:28N 47°38' W 122°23'0 0.0
2017-Sep-21 10:58N 47°38' W 122°23'0 0.0
2017-Sep-21 10:28N 47°38' W 122°23'0 0.0
2017-Sep-21 10:00N 47°38' W 122°23'0 0.0
2017-Sep-21 09:30N 47°38' W 122°23'0 0.0
2017-Sep-21 09:00N 47°38' W 122°23'0 0.0
2017-Sep-21 08:30N 47°38' W 122°23'0 0.0
2017-Sep-21 08:00N 47°38' W 122°23'0 0.0
2017-Sep-21 07:30N 47°38' W 122°23'0 0.0
2017-Sep-21 07:00N 47°38' W 122°23'0 0.0
2017-Sep-21 06:30N 47°38' W 122°23'0 0.0
2017-Sep-21 06:00N 47°38' W 122°23'0 0.0
2017-Sep-21 05:30N 47°38' W 122°23'0 0.0
2017-Sep-21 05:00N 47°38' W 122°23'0 0.0
2017-Sep-21 04:30N 47°38' W 122°23'0 0.0
2017-Sep-21 04:00N 47°38' W 122°23'0 0.0
2017-Sep-21 03:30N 47°38' W 122°23'0 0.0
2017-Sep-21 03:00N 47°38' W 122°23'0 0.0
2017-Sep-21 02:30N 47°38' W 122°23'0 0.0
2017-Sep-21 02:00N 47°38' W 122°23'0 0.0
2017-Sep-21 01:30N 47°38' W 122°23'2 4.5
2017-Sep-21 01:00N 47°36' W 122°24'611.4
2017-Sep-21 00:30N 47°31' W 122°29'611.3
2017-Sep-21 00:00N 47°26' W 122°31'611.3
2017-Sep-20 23:30N 47°20' W 122°32'611.7
2017-Sep-20 23:00N 47°17' W 122°25'2 3.8
2017-Sep-20 22:30N 47°15' W 122°23'1 1.5
2017-Sep-20 22:00N 47°16' W 122°23'2 3.5
2017-Sep-20 21:30N 47°17' W 122°25'1 2.6
2017-Sep-20 21:00N 47°16' W 122°26'1 2.5
2017-Sep-20 20:29N 47°16' W 122°24'1 1.5
2017-Sep-20 20:01N 47°17' W 122°25'1 1.7
2017-Sep-20 19:30N 47°18' W 122°26'2 3.3
2017-Sep-20 19:00N 47°16' W 122°26'0 0.3
2017-Sep-20 18:24N 47°16' W 122°26'0 0.0
2017-Sep-20 18:00N 47°16' W 122°26'0 0.0
2017-Sep-20 17:27N 47°16' W 122°26'0 0.0
2017-Sep-20 16:54N 47°16' W 122°26'0 0.0
2017-Sep-20 16:09N 47°16' W 122°26'0 0.0
2017-Sep-20 15:57N 47°16' W 122°26'0 0.0
2017-Sep-20 15:30N 47°16' W 122°26'0 0.0
2017-Sep-20 14:51N 47°16' W 122°26'0 0.0
2017-Sep-20 14:00N 47°16' W 122°26'0 0.0
2017-Sep-20 13:30N 47°16' W 122°26'2 3.1
2017-Sep-20 13:00N 47°17' W 122°27'4 9.0
2017-Sep-20 12:30N 47°21' W 122°25'4 8.5
2017-Sep-20 12:01N 47°26' W 122°24'510.4
2017-Sep-20 11:30N 47°31' W 122°24'5 9.8
2017-Sep-20 11:00N 47°36' W 122°24'2 4.9
2017-Sep-20 10:30N 47°36' W 122°21'0 0.1
2017-Sep-20 10:01N 47°36' W 122°21'1 1.7
2017-Sep-20 09:31N 47°35' W 122°21'0 0.0
2017-Sep-20 08:58N 47°35' W 122°21'0 0.0
2017-Sep-20 08:28N 47°35' W 122°21'0 0.0
2017-Sep-20 07:58N 47°35' W 122°21'0 0.0
2017-Sep-20 07:28N 47°35' W 122°21'0 0.0
2017-Sep-20 06:55N 47°35' W 122°21'0 0.0
2017-Sep-20 06:28N 47°35' W 122°21'0 0.0
2017-Sep-20 05:58N 47°35' W 122°21'0 0.0
2017-Sep-20 05:28N 47°35' W 122°21'0 0.0
2017-Sep-20 04:59N 47°35' W 122°21'0 0.0
2017-Sep-20 04:28N 47°35' W 122°21'0 0.0
2017-Sep-20 03:52N 47°35' W 122°21'0 0.0
2017-Sep-20 03:28N 47°35' W 122°21'0 0.0
2017-Sep-20 02:58N 47°35' W 122°21'0 0.0
2017-Sep-20 02:28N 47°35' W 122°21'0 0.1
2017-Sep-20 02:00N 47°35' W 122°21'1 1.7
2017-Sep-20 01:30N 47°36' W 122°21'1 2.5
2017-Sep-20 01:00N 47°36' W 122°22'1 1.8
2017-Sep-20 00:30N 47°37' W 122°23'1 2.1
2017-Sep-19 23:58N 47°38' W 122°23'0 0.0
2017-Sep-19 23:28N 47°38' W 122°23'0 0.0
2017-Sep-19 22:58N 47°38' W 122°23'0 0.0
2017-Sep-19 22:28N 47°38' W 122°23'0 0.0
2017-Sep-19 21:58N 47°38' W 122°23'0 0.0
2017-Sep-19 21:28N 47°38' W 122°23'0 0.0
2017-Sep-19 20:58N 47°38' W 122°23'0 0.0
2017-Sep-19 20:28N 47°38' W 122°23'0 0.0
2017-Sep-19 19:59N 47°38' W 122°23'0 0.0
2017-Sep-19 19:29N 47°38' W 122°23'0 0.1
2017-Sep-19 19:00N 47°38' W 122°23'3 5.6
2017-Sep-19 18:30N 47°36' W 122°21'0 0.4
2017-Sep-19 18:00N 47°36' W 122°21'1 2.0
2017-Sep-19 17:30N 47°36' W 122°22'2 3.1
2017-Sep-19 16:59N 47°35' W 122°21'0 0.0
2017-Sep-19 16:28N 47°35' W 122°21'0 0.0
2017-Sep-19 15:58N 47°35' W 122°21'0 0.0
2017-Sep-19 15:29N 47°35' W 122°21'0 0.0
2017-Sep-19 14:58N 47°35' W 122°21'0 0.0
2017-Sep-19 14:31N 47°35' W 122°21'0 0.5
2017-Sep-19 14:01N 47°35' W 122°21'1 1.6
2017-Sep-19 13:31N 47°36' W 122°21'1 2.5
2017-Sep-19 13:01N 47°36' W 122°22'0 0.5
2017-Sep-19 12:31N 47°36' W 122°22'1 2.8
2017-Sep-19 12:01N 47°35' W 122°21'0 0.7
2017-Sep-19 11:31N 47°35' W 122°21'0 0.4
2017-Sep-19 11:00N 47°35' W 122°21'0 0.0
2017-Sep-19 10:30N 47°35' W 122°21'0 0.1
2017-Sep-19 10:01N 47°35' W 122°21'3 5.3
2017-Sep-19 09:28N 47°38' W 122°23'0 0.0
2017-Sep-19 09:01N 47°38' W 122°23'0 0.0
2017-Sep-19 08:28N 47°38' W 122°23'0 0.0
2017-Sep-19 08:01N 47°38' W 122°23'0 0.0
2017-Sep-19 07:31N 47°38' W 122°23'0 0.0
2017-Sep-19 06:58N 47°38' W 122°23'0 0.0
2017-Sep-19 06:31N 47°38' W 122°23'0 0.0
2017-Sep-19 06:00N 47°38' W 122°23'3 7.0
2017-Sep-19 05:30N 47°39' W 122°28'510.1
2017-Sep-19 05:00N 47°44' W 122°27'510.5
2017-Sep-19 04:30N 47°50' W 122°28'510.5
2017-Sep-19 04:00N 47°55' W 122°30'5 9.1
2017-Sep-19 03:30N 47°58' W 122°35'10 8.8
2017-Sep-19 02:23N 48°07' W 122°41'19 9.5
2017-Sep-19 00:20N 48°26' W 122°45'7 2.1
2017-Sep-18 21:07N 48°33' W 122°45'1 8.1
2017-Sep-18 21:00N 48°34' W 122°45'6 8.4
2017-Sep-18 20:16N 48°40' W 122°44'2 9.4
2017-Sep-18 20:00N 48°42' W 122°45'610.6
2017-Sep-18 19:26N 48°48' W 122°44'0 0.2
2017-Sep-18 18:02N 48°49' W 122°44'0 5.0
2017-Sep-18 18:00N 48°48' W 122°44'1 1.4
2017-Sep-18 17:07N 48°47' W 122°45'2 4.4
2017-Sep-18 16:41N 48°45' W 122°45'2 6.6
2017-Sep-18 16:22N 48°43' W 122°44'3 6.9
2017-Sep-18 15:59N 48°41' W 122°42'5 8.0
2017-Sep-18 15:18N 48°37' W 122°37'5 0.2
2017-Sep-17 18:09N 48°31' W 122°36'1 7.4
2017-Sep-17 17:57N 48°31' W 122°35'0 0.1
2017-Sep-17 17:06N 48°31' W 122°34'0 0.3
2017-Sep-17 16:49N 48°31' W 122°35'0 0.4
2017-Sep-17 15:52N 48°31' W 122°35'1 0.5
2017-Sep-17 13:13N 48°31' W 122°37'0 0.0
2017-Sep-17 11:52N 48°31' W 122°37'0 0.0
2017-Sep-17 11:21N 48°31' W 122°37'0 0.0
2017-Sep-17 11:00N 48°31' W 122°37'0 0.0
2017-Sep-17 10:30N 48°31' W 122°37'0 0.0
2017-Sep-17 09:48N 48°31' W 122°37'0 0.0
2017-Sep-17 09:30N 48°31' W 122°37'0 0.0
2017-Sep-17 09:01N 48°31' W 122°37'0 0.0
2017-Sep-17 08:22N 48°31' W 122°37'0 0.0
2017-Sep-17 07:58N 48°31' W 122°37'0 0.0
2017-Sep-17 07:30N 48°31' W 122°37'0 0.0
2017-Sep-17 07:00N 48°31' W 122°37'0 0.0
2017-Sep-17 06:30N 48°31' W 122°37'0 0.0
2017-Sep-17 03:24N 48°31' W 122°37'0 0.0
2017-Sep-17 02:54N 48°31' W 122°37'0 0.0
2017-Sep-17 00:57N 48°31' W 122°37'1 2.4
2017-Sep-17 00:23N 48°31' W 122°35'0 0.1
2017-Sep-16 23:52N 48°31' W 122°35'0 1.2
2017-Sep-16 23:30N 48°31' W 122°34'2 2.6
2017-Sep-16 22:55N 48°31' W 122°36'0 0.0
2017-Sep-16 14:51N 48°31' W 122°37'0 0.0
2017-Sep-16 14:27N 48°31' W 122°37'0 0.0
2017-Sep-16 13:51N 48°31' W 122°37'0 0.0
2017-Sep-16 13:24N 48°31' W 122°37'0 0.0
2017-Sep-16 13:00N 48°31' W 122°37'0 0.0
2017-Sep-16 12:27N 48°31' W 122°37'0 0.0
2017-Sep-16 12:00N 48°31' W 122°37'0 0.0
2017-Sep-16 11:30N 48°31' W 122°37'1 2.3
2017-Sep-16 11:00N 48°31' W 122°38'4 7.8
2017-Sep-16 10:30N 48°29' W 122°43'5 9.5
2017-Sep-16 10:00N 48°25' W 122°44'510.4
2017-Sep-16 09:30N 48°19' W 122°46'2010.1
2017-Sep-16 07:34N 48°01' W 122°37'110.7
2017-Sep-16 07:28N 47°60' W 122°36'510.6
2017-Sep-16 07:00N 47°57' W 122°31'510.9
2017-Sep-16 06:30N 47°51' W 122°28'611.4
2017-Sep-16 06:00N 47°46' W 122°26'611.1
2017-Sep-16 05:30N 47°40' W 122°27'510.7
2017-Sep-16 05:00N 47°36' W 122°22'0 0.8
2017-Sep-16 04:30N 47°36' W 122°21'2 3.9
2017-Sep-16 03:59N 47°38' W 122°23'0 0.0
2017-Sep-16 03:29N 47°38' W 122°23'0 0.0
2017-Sep-16 03:00N 47°38' W 122°23'0 0.0
2017-Sep-16 02:29N 47°38' W 122°23'0 0.0
2017-Sep-16 02:00N 47°38' W 122°23'0 0.0
2017-Sep-16 01:30N 47°38' W 122°23'0 0.0
2017-Sep-16 01:00N 47°38' W 122°23'3 6.4
2017-Sep-16 00:30N 47°35' W 122°21'0 0.9
2017-Sep-16 00:00N 47°35' W 122°21'1 2.4
2017-Sep-15 23:30N 47°37' W 122°22'1 2.2
2017-Sep-15 23:00N 47°35' W 122°22'3 5.1
2017-Sep-15 22:30N 47°33' W 122°20'0 0.0
2017-Sep-15 22:00N 47°33' W 122°20'1 1.5
2017-Sep-15 21:30N 47°34' W 122°21'1 1.8
2017-Sep-15 21:00N 47°34' W 122°21'1 2.0
2017-Sep-15 20:30N 47°35' W 122°22'1 1.4
2017-Sep-15 20:01N 47°36' W 122°21'2 4.0
2017-Sep-15 19:30N 47°38' W 122°23'0 0.0
2017-Sep-15 18:58N 47°38' W 122°23'0 0.0
2017-Sep-15 18:29N 47°38' W 122°23'0 0.0
2017-Sep-15 17:58N 47°38' W 122°23'0 0.0
2017-Sep-15 17:28N 47°38' W 122°23'0 0.0
2017-Sep-15 16:58N 47°38' W 122°23'0 0.0
2017-Sep-15 16:29N 47°38' W 122°23'0 0.0
2017-Sep-15 15:58N 47°38' W 122°23'0 0.0
2017-Sep-15 15:28N 47°38' W 122°23'0 0.0
2017-Sep-15 14:58N 47°38' W 122°23'0 0.0
2017-Sep-15 14:28N 47°38' W 122°23'0 0.0
2017-Sep-15 13:58N 47°38' W 122°23'0 0.0
2017-Sep-15 13:28N 47°38' W 122°23'0 0.0
2017-Sep-15 13:00N 47°38' W 122°23'4 8.5
2017-Sep-15 12:30N 47°34' W 122°26'611.2
2017-Sep-15 12:00N 47°29' W 122°24'611.2
2017-Sep-15 11:30N 47°24' W 122°21'510.7
2017-Sep-15 11:00N 47°19' W 122°26'4 8.9
2017-Sep-15 10:30N 47°16' W 122°23'0 0.0
2017-Sep-15 10:00N 47°16' W 122°23'2 3.3
2017-Sep-15 09:30N 47°17' W 122°25'0 0.1
2017-Sep-15 09:00N 47°17' W 122°25'1 0.2
2017-Sep-15 03:02N 47°16' W 122°26'0 0.0
2017-Sep-15 03:00N 47°16' W 122°26'0 0.0
2017-Sep-15 02:25N 47°16' W 122°26'1 3.1
2017-Sep-15 02:01N 47°16' W 122°24'2 3.0
2017-Sep-15 01:31N 47°15' W 122°23'0 0.1
2017-Sep-15 00:59N 47°15' W 122°23'2 3.3
2017-Sep-15 00:29N 47°16' W 122°24'2 2.8
2017-Sep-14 23:56N 47°16' W 122°27'0 0.3
2017-Sep-14 23:30N 47°16' W 122°26'  

Dump ship's entire track history